Terminal Aerodrome Forecast
Issued by NWS

Home | Current Version | Previous Version | Text Only | Print | Product List | Glossary On
Versions: 1 2 3 4 5 6 7 8 9 10 11 12 13 14 15 16 17 18 19 20 21 22 23 24 25 26 27 28 29 30 31 32 33 34 35 36
000
FTUS41 KBOX 181120
TAFHYA
TAF
KHYA 181120Z 1812/1912 28013KT P6SM -SHRA OVC030
     FM181300 28014G28KT P6SM BKN035
     FM181700 29015G28KT P6SM SCT045
     FM190400 30010G23KT P6SM SCT025
     FM190800 31008KT P6SM SCT200=

USA.gov is the U.S. government's official web portal to all federal, state and local government web resources and services.